Time;durP1;ratioP1;P1;durP2;ratioP2;P2;SDS_P1;SDS_P2;PMS_P1;PMS_P2;Temp;Humidity;BMP_temperature;BMP_pressure;BME280_temperature;BME280_humidity;BME280_pressure;Samples;Min_cycle;Max_cycle;Signal;HPM_P1;HPM_P2
2023/01/19 00:02:19;;;;;;;11.32;5.07;;;;;;;-0.82;98.51;98675.50;12208986;19;20658;-80
2023/01/19 00:06:21;;;;;;;14.35;5.05;;;;;;;-0.79;99.06;98680.50;12185478;19;20018;-79
2023/01/19 00:10:23;;;;;;;11.05;5.35;;;;;;;-0.75;99.16;98684.44;12208303;19;20475;-80
2023/01/19 00:14:24;;;;;;;12.23;5.10;;;;;;;-0.70;98.57;98684.69;12209577;19;20014;-80
2023/01/19 00:18:26;;;;;;;9.32;4.57;;;;;;;-0.69;98.40;98673.63;12191365;19;20615;-80
2023/01/19 00:22:28;;;;;;;11.15;5.25;;;;;;;-0.69;98.81;98672.81;12207624;19;20010;-79
2023/01/19 00:26:29;;;;;;;14.18;6.22;;;;;;;-0.68;98.81;98669.09;12217300;19;20026;-79
2023/01/19 00:30:31;;;;;;;13.68;5.60;;;;;;;-0.67;99.30;98678.84;12247845;19;19991;-79
2023/01/19 00:34:38;;;;;;;15.10;6.15;;;;;;;-0.70;99.94;98682.81;12249562;19;20021;-79
2023/01/19 00:38:40;;;;;;;12.88;5.88;;;;;;;-0.71;99.66;98689.25;12212961;19;21796;-80
2023/01/19 00:42:47;;;;;;;13.63;5.57;;;;;;;-0.73;100.00;98690.50;12187840;19;20022;-80
2023/01/19 00:46:48;;;;;;;11.68;5.30;;;;;;;-0.68;100.00;98701.53;12208073;19;20035;-79
2023/01/19 00:50:50;;;;;;;14.30;5.47;;;;;;;-0.65;100.00;98701.13;12187791;19;20030;-80
2023/01/19 00:54:51;;;;;;;12.35;5.65;;;;;;;-0.60;100.00;98698.63;12204581;19;20014;-80
2023/01/19 00:58:53;;;;;;;13.50;6.15;;;;;;;-0.56;100.00;98707.19;12204637;19;20003;-79
2023/01/19 01:02:54;;;;;;;15.90;6.47;;;;;;;-0.52;100.00;98701.16;12176152;19;20038;-80
2023/01/19 01:06:56;;;;;;;8.95;4.18;;;;;;;-0.52;100.00;98706.56;12207137;19;20023;-80
2023/01/19 01:10:58;;;;;;;13.63;6.38;;;;;;;-0.51;100.00;98708.22;12203907;19;20006;-80
2023/01/19 01:15:05;;;;;;;14.77;5.65;;;;;;;-0.54;100.00;98711.34;12183066;19;20018;-80
2023/01/19 01:19:06;;;;;;;14.02;6.70;;;;;;;-0.53;100.00;98721.13;12203925;19;20014;-80
2023/01/19 01:23:08;;;;;;;16.50;6.70;;;;;;;-0.54;100.00;98724.88;12203657;19;20010;-80
2023/01/19 01:27:10;;;;;;;14.75;6.07;;;;;;;-0.51;100.00;98719.03;12178178;19;20035;-80
2023/01/19 01:31:12;;;;;;;17.02;6.30;;;;;;;-0.46;100.00;98721.97;12203080;19;20034;-79
2023/01/19 01:35:14;;;;;;;14.77;6.13;;;;;;;-0.30;100.00;98715.34;12197718;19;20006;-79
2023/01/19 01:39:15;;;;;;;16.13;6.65;;;;;;;-0.14;100.00;98722.22;12178627;19;20006;-80
2023/01/19 01:43:19;;;;;;;14.10;6.38;;;;;;;-0.08;100.00;98717.88;12197877;19;20010;-80
2023/01/19 01:47:33;;;;;;;12.02;5.63;;;;;;;-0.07;100.00;98725.75;12196357;19;20027;-79
2023/01/19 01:51:52;;;;;;;17.45;6.82;;;;;;;-0.06;100.00;98723.88;12178847;19;20036;-80
2023/01/19 01:55:54;;;;;;;14.15;7.00;;;;;;;-0.07;100.00;98724.94;12195094;19;20010;-80
2023/01/19 01:59:57;;;;;;;14.57;6.50;;;;;;;-0.08;100.00;98731.41;12174998;19;20556;-79
2023/01/19 02:03:58;;;;;;;;;;;;;;;-0.14;100.00;98719.53;12197391;19;20324;-79
2023/01/19 02:16:52;;;;;;;18.88;7.80;;;;;;;-0.27;100.00;98731.19;12197932;19;20011;-80
2023/01/19 02:21:00;;;;;;;14.93;6.97;;;;;;;-0.31;100.00;98729.09;12177475;19;20006;-80
2023/01/19 02:25:04;;;;;;;13.40;6.55;;;;;;;-0.33;100.00;98725.72;12196883;19;20036;-80
2023/01/19 02:29:12;;;;;;;16.73;6.47;;;;;;;-0.38;100.00;98728.25;12202345;19;20006;-80
2023/01/19 02:33:13;;;;;;;15.40;7.03;;;;;;;-0.43;100.00;98736.13;12179086;19;20003;-79
2023/01/19 02:37:17;;;;;;;16.35;7.25;;;;;;;-0.50;100.00;98726.13;12197283;19;20027;-80
2023/01/19 02:41:24;;;;;;;18.10;7.53;;;;;;;-0.48;100.00;98731.34;12199754;19;20017;-80
2023/01/19 02:45:26;;;;;;;17.88;6.72;;;;;;;-0.51;100.00;98724.44;12178103;19;20010;-79
2023/01/19 02:49:29;;;;;;;19.87;7.90;;;;;;;-0.55;100.00;98728.63;12207352;19;20044;-80
2023/01/19 02:54:05;;;;;;;21.45;7.85;;;;;;;-0.57;100.00;98736.09;12207107;19;20007;-79
2023/01/19 02:58:21;;;;;;;22.85;7.47;;;;;;;-0.59;100.00;98734.66;12190595;19;20026;-80
2023/01/19 03:02:40;;;;;;;14.38;7.05;;;;;;;-0.59;100.00;98731.97;12212287;19;20011;-79
2023/01/19 03:07:08;;;;;;;15.60;7.93;;;;;;;-0.59;100.00;98729.25;12189577;19;20054;-79
2023/01/19 03:11:12;;;;;;;15.80;7.70;;;;;;;-0.59;100.00;98727.38;12217677;19;20031;-79
2023/01/19 03:15:26;;;;;;;18.42;7.85;;;;;;;-0.58;100.00;98726.31;12237258;19;20007;-80
2023/01/19 03:19:35;;;;;;;19.90;8.02;;;;;;;-0.55;100.00;98739.44;12250178;19;20014;-80
2023/01/19 03:23:40;;;;;;;18.33;7.72;;;;;;;-0.47;100.00;98736.56;12213757;19;20022;-80
2023/01/19 03:27:45;;;;;;;15.30;8.20;;;;;;;-0.36;100.00;98742.38;12190785;19;20003;-80
2023/01/19 03:31:49;;;;;;;17.80;8.30;;;;;;;-0.27;100.00;98743.84;12216657;19;20034;-81
2023/01/19 03:35:56;;;;;;;19.67;8.73;;;;;;;-0.20;100.00;98739.31;12189266;19;20034;-80
2023/01/19 03:39:58;;;;;;;17.35;8.20;;;;;;;-0.14;100.00;98738.47;12211338;19;20003;-80
2023/01/19 03:44:01;;;;;;;18.07;8.47;;;;;;;-0.07;100.00;98742.00;12208794;19;20148;-80
2023/01/19 03:48:04;;;;;;;17.48;8.20;;;;;;;-0.01;100.00;98735.75;12187498;19;19999;-80
2023/01/19 03:52:05;;;;;;;20.08;8.82;;;;;;;0.02;100.00;98739.09;12200842;19;20159;-79
2023/01/19 03:56:18;;;;;;;15.80;8.20;;;;;;;0.08;100.00;98738.28;12202557;19;20062;-79
2023/01/19 04:00:20;;;;;;;18.98;9.13;;;;;;;0.17;100.00;98739.72;12188892;19;20007;-80
2023/01/19 04:04:21;;;;;;;17.45;9.07;;;;;;;0.28;100.00;98744.50;12206019;19;19999;-80
2023/01/19 04:08:23;;;;;;;18.60;9.00;;;;;;;0.33;100.00;98736.59;12211591;19;20034;-80
2023/01/19 04:12:24;;;;;;;19.30;8.20;;;;;;;0.40;100.00;98732.00;12185562;19;20006;-80
2023/01/19 04:16:26;;;;;;;21.17;9.52;;;;;;;0.42;100.00;98735.34;12206393;19;20103;-79
2023/01/19 04:20:28;;;;;;;16.80;9.10;;;;;;;0.42;100.00;98729.91;12208448;19;20007;-80
2023/01/19 04:24:30;;;;;;;22.00;9.27;;;;;;;0.52;100.00;98725.94;12183387;19;20029;-78
2023/01/19 04:28:33;;;;;;;20.17;8.77;;;;;;;0.64;100.00;98754.88;12202321;19;20811;-79
2023/01/19 04:32:35;;;;;;;19.15;8.98;;;;;;;0.74;100.00;98759.88;12205290;19;20562;-79
2023/01/19 04:36:36;;;;;;;26.38;10.23;;;;;;;0.81;100.00;98751.72;12178781;19;19999;-79
2023/01/19 04:40:38;;;;;;;23.30;9.05;;;;;;;0.86;100.00;98749.19;12202082;19;20010;-79
2023/01/19 04:44:40;;;;;;;20.08;9.63;;;;;;;0.86;100.00;98738.34;12200271;19;20010;-79
2023/01/19 04:48:41;;;;;;;15.77;8.57;;;;;;;0.87;100.00;98735.44;12181763;19;20006;-79
2023/01/19 04:52:43;;;;;;;19.67;9.65;;;;;;;0.97;100.00;98743.13;12199988;19;20002;-79
2023/01/19 04:56:45;;;;;;;19.80;9.02;;;;;;;1.03;100.00;98746.84;12199080;19;20567;-79
2023/01/19 05:00:47;;;;;;;23.77;8.80;;;;;;;1.00;100.00;98756.25;12178536;19;20074;-79
2023/01/19 05:04:49;;;;;;;21.90;8.70;;;;;;;1.04;100.00;98756.66;12205548;19;20329;-80
2023/01/19 05:08:50;;;;;;;17.42;8.93;;;;;;;1.07;100.00;98765.22;12180601;19;20295;-79
2023/01/19 05:12:52;;;;;;;20.05;9.10;;;;;;;1.12;100.00;98764.56;12201627;19;20077;-79
2023/01/19 05:16:54;;;;;;;16.88;9.02;;;;;;;1.08;100.00;98760.63;12198879;19;20074;-79
2023/01/19 05:20:55;;;;;;;18.75;8.63;;;;;;;1.08;100.00;98763.34;12178936;19;20034;-79
2023/01/19 05:24:57;;;;;;;14.80;7.35;;;;;;;1.11;100.00;98771.88;12198338;19;20602;-80
2023/01/19 05:28:59;;;;;;;20.27;8.13;;;;;;;1.03;100.00;98769.38;12201000;19;20028;-79
2023/01/19 05:33:00;;;;;;;16.73;8.27;;;;;;;0.92;100.00;98767.31;12180688;19;20003;-80
2023/01/19 05:37:03;;;;;;;16.92;10.30;;;;;;;0.87;100.00;98767.97;12206035;19;20034;-79
2023/01/19 05:41:04;;;;;;;18.27;9.13;;;;;;;0.78;100.00;98766.53;12214386;19;20006;-79
2023/01/19 05:45:07;;;;;;;21.90;9.68;;;;;;;0.65;100.00;98769.28;12217431;19;20006;-79
2023/01/19 05:49:08;;;;;;;16.90;8.65;;;;;;;0.54;100.00;98769.94;12246131;19;20014;-83
2023/01/19 05:53:10;;;;;;;18.87;8.47;;;;;;;0.54;100.00;98775.34;12236198;19;20018;-82
2023/01/19 05:57:13;;;;;;;19.88;8.02;;;;;;;0.58;100.00;98765.75;12206667;19;20886;-83
2023/01/19 06:01:25;;;;;;;19.85;8.40;;;;;;;0.71;100.00;98764.88;12258584;19;20007;-83
2023/01/19 06:05:27;;;;;;;18.08;7.82;;;;;;;0.76;100.00;98776.75;12258365;19;20015;-82
2023/01/19 06:09:29;;;;;;;16.70;7.88;;;;;;;0.79;100.00;98770.91;12210095;19;20010;-82
2023/01/19 06:13:32;;;;;;;17.63;8.43;;;;;;;0.88;100.00;98780.47;12220361;19;20070;-83
2023/01/19 06:17:34;;;;;;;20.38;8.73;;;;;;;0.97;100.00;98782.97;12215723;19;20029;-85
2023/01/19 06:21:35;;;;;;;14.63;6.60;;;;;;;0.98;100.00;98776.50;12202278;19;20006;-83
2023/01/19 06:25:38;;;;;;;18.23;8.27;;;;;;;1.06;100.00;98790.66;12215117;19;20035;-81
2023/01/19 06:29:39;;;;;;;17.05;8.07;;;;;;;1.08;100.00;98795.88;12220186;19;20696;-80
2023/01/19 06:33:41;;;;;;;17.93;8.20;;;;;;;1.09;100.00;98789.41;12192951;19;20028;-79
2023/01/19 06:37:43;;;;;;;19.42;8.35;;;;;;;1.11;100.00;98806.31;12214743;19;20007;-80
2023/01/19 06:41:44;;;;;;;14.73;8.00;;;;;;;1.14;100.00;98797.75;12207999;19;20013;-80
2023/01/19 06:45:46;;;;;;;16.50;7.80;;;;;;;1.19;100.00;98802.50;12191225;19;20027;-80
2023/01/19 06:49:48;;;;;;;19.20;9.18;;;;;;;1.11;100.00;98804.44;12230071;19;20468;-80
2023/01/19 06:53:50;;;;;;;16.73;8.32;;;;;;;1.13;100.00;98815.91;12200710;19;20038;-80
2023/01/19 06:57:58;;;;;;;22.75;10.27;;;;;;;1.16;100.00;98817.38;12191979;19;20023;-80
2023/01/19 07:01:59;;;;;;;20.67;9.48;;;;;;;1.11;100.00;98820.72;12231961;19;20007;-79
2023/01/19 07:06:21;;;;;;;20.10;9.65;;;;;;;1.05;100.00;98826.16;12207636;19;20013;-79
2023/01/19 07:10:23;;;;;;;22.48;9.77;;;;;;;1.04;100.00;98832.59;12224424;19;20011;-79
2023/01/19 07:14:29;;;;;;;14.50;7.60;;;;;;;1.09;100.00;98840.94;12227980;19;20045;-79
2023/01/19 07:18:31;;;;;;;22.98;10.20;;;;;;;1.11;100.00;98849.72;12206315;19;20014;-79
2023/01/19 07:22:33;;;;;;;25.40;11.13;;;;;;;1.14;100.00;98847.41;12228523;19;20049;-80
2023/01/19 07:26:35;;;;;;;24.10;10.48;;;;;;;1.08;100.00;98855.56;12223572;19;20010;-80
2023/01/19 07:30:37;;;;;;;26.73;10.90;;;;;;;1.06;100.00;98854.94;12207650;19;20003;-79
2023/01/19 07:34:39;;;;;;;21.05;9.93;;;;;;;1.05;100.00;98864.13;12222436;19;20019;-79
2023/01/19 07:38:41;;;;;;;21.60;10.32;;;;;;;1.07;100.00;98862.03;12230755;19;20033;-79
2023/01/19 07:42:47;;;;;;;20.67;10.23;;;;;;;1.01;100.00;98858.31;12209339;19;20058;-80
2023/01/19 07:46:50;;;;;;;28.35;10.65;;;;;;;1.02;100.00;98868.09;12256397;19;20252;-80
2023/01/19 07:50:51;;;;;;;24.87;10.57;;;;;;;1.07;100.00;98868.31;12240710;19;20006;-80
2023/01/19 07:54:53;;;;;;;24.77;12.05;;;;;;;1.11;100.00;98868.72;12241595;19;20006;-81
2023/01/19 07:58:55;;;;;;;29.33;11.55;;;;;;;1.11;100.00;98868.72;12239915;19;20010;-79
2023/01/19 08:03:02;;;;;;;20.77;10.45;;;;;;;1.12;100.00;98856.81;12217139;19;20043;-80
2023/01/19 08:07:06;;;;;;;25.25;10.82;;;;;;;1.01;100.00;98861.03;12229533;19;20002;-80
2023/01/19 08:11:08;;;;;;;24.45;11.50;;;;;;;1.05;100.00;98873.09;12231065;19;20039;-79
2023/01/19 08:15:10;;;;;;;21.08;10.73;;;;;;;0.95;100.00;98863.72;12209235;19;20015;-80
2023/01/19 08:19:11;;;;;;;18.42;10.05;;;;;;;0.91;100.00;98863.31;12231527;19;20042;-80
2023/01/19 08:23:14;;;;;;;23.42;11.20;;;;;;;0.94;100.00;98862.91;12229210;19;20066;-80
2023/01/19 08:27:15;;;;;;;21.13;9.85;;;;;;;0.89;100.00;98862.69;12202500;19;20006;-80
2023/01/19 08:31:17;;;;;;;20.67;10.40;;;;;;;0.87;100.00;98857.47;12224100;19;20008;-79
2023/01/19 08:35:24;;;;;;;18.45;10.23;;;;;;;0.82;100.00;98857.28;12220191;19;20002;-80
2023/01/19 08:39:26;;;;;;;22.75;10.25;;;;;;;0.78;100.00;98864.16;12199757;19;19998;-80
2023/01/19 08:43:28;;;;;;;24.70;10.05;;;;;;;0.78;100.00;98860.63;12220023;19;20010;-80
2023/01/19 08:47:29;;;;;;;22.27;9.95;;;;;;;0.74;100.00;98865.63;12221312;19;20121;-79
2023/01/19 08:51:31;;;;;;;23.75;8.95;;;;;;;0.78;100.00;98864.16;12198134;19;20007;-80
2023/01/19 08:55:35;;;;;;;17.65;8.88;;;;;;;0.98;100.00;98864.16;12220869;19;20006;-80
2023/01/19 08:59:37;;;;;;;21.58;8.70;;;;;;;1.06;100.00;98863.09;12221745;19;20014;-79
2023/01/19 09:03:38;;;;;;;23.27;9.63;;;;;;;1.12;100.00;98854.94;12201626;19;20050;-80
2023/01/19 09:07:40;;;;;;;17.58;8.95;;;;;;;1.21;100.00;98874.53;12220003;19;20006;-79
2023/01/19 09:11:42;;;;;;;15.63;8.77;;;;;;;1.36;100.00;98872.41;12213068;19;20003;-80
2023/01/19 09:15:44;;;;;;;;;;;;;;;1.29;100.00;98871.59;12214341;19;20003;-80
2023/01/19 09:19:46;;;;;;;21.42;8.45;;;;;;;1.39;100.00;98871.13;12240847;19;19911;-80
2023/01/19 09:23:48;;;;;;;15.93;8.27;;;;;;;1.58;100.00;98872.13;12230623;19;20006;-80
2023/01/19 09:27:50;;;;;;;17.88;8.70;;;;;;;1.68;100.00;98877.94;12204437;19;20010;-80
2023/01/19 09:31:51;;;;;;;20.77;9.40;;;;;;;1.81;100.00;98877.03;12225490;19;20015;-80
2023/01/19 09:35:54;;;;;;;32.03;10.63;;;;;;;1.90;100.00;98880.34;12204215;19;20014;-80
2023/01/19 09:39:55;;;;;;;15.37;7.40;;;;;;;2.03;100.00;98872.13;12228027;19;20077;-80
2023/01/19 09:43:59;;;;;;;16.30;8.20;;;;;;;2.15;100.00;98878.53;12227562;19;19998;-80
2023/01/19 09:48:04;;;;;;;17.48;8.77;;;;;;;2.33;100.00;98876.97;12209640;19;20440;-80
2023/01/19 09:52:13;;;;;;;18.77;9.32;;;;;;;2.46;100.00;98882.31;12226653;19;20425;-80
2023/01/19 09:56:18;;;;;;;17.52;8.65;;;;;;;2.60;100.00;98888.50;12221266;19;20014;-80
2023/01/19 10:00:23;;;;;;;17.65;8.18;;;;;;;2.64;99.47;98892.41;12199646;19;20072;-79
2023/01/19 10:04:40;;;;;;;13.45;8.00;;;;;;;2.79;99.56;98886.66;12220310;19;20433;-81
2023/01/19 10:09:07;;;;;;;18.75;9.00;;;;;;;2.89;98.75;98887.84;12219714;19;20378;-79
2023/01/19 10:13:21;;;;;;;17.27;8.73;;;;;;;3.00;97.47;98885.44;12190108;19;20011;-79
2023/01/19 10:17:42;;;;;;;20.85;8.90;;;;;;;2.82;97.61;98900.66;12216901;19;20010;-79
2023/01/19 10:21:45;;;;;;;17.52;8.70;;;;;;;2.94;98.23;98896.16;12195217;19;20075;-80
2023/01/19 10:25:46;;;;;;;19.80;9.55;;;;;;;3.09;98.01;98898.53;12216263;19;20080;-79
2023/01/19 10:29:48;;;;;;;20.50;9.75;;;;;;;3.49;96.23;98909.03;12221526;19;20013;-79
2023/01/19 10:33:51;;;;;;;18.83;9.32;;;;;;;3.70;93.42;98909.66;12193776;19;20019;-81
2023/01/19 10:37:55;;;;;;;;;;;;;;;4.00;91.78;98905.06;12214367;19;20735;-79
2023/01/19 10:42:01;;;;;;;18.08;7.78;;;;;;;4.14;91.43;98910.38;12193238;19;19911;-81
2023/01/19 10:46:16;;;;;;;18.00;8.68;;;;;;;4.21;90.87;98894.72;12214998;19;20028;-79
2023/01/19 10:50:30;;;;;;;15.32;8.93;;;;;;;4.24;90.34;98899.72;12222739;19;20022;-79
2023/01/19 10:54:33;;;;;;;16.80;8.82;;;;;;;4.22;89.73;98899.13;12191303;19;20104;-79
2023/01/19 10:58:36;;;;;;;23.63;8.90;;;;;;;4.31;90.35;98901.31;12211954;19;20047;-80
2023/01/19 11:02:49;;;;;;;16.48;9.40;;;;;;;4.33;89.16;98898.34;12211811;19;20011;-79
2023/01/19 11:06:51;;;;;;;17.15;9.07;;;;;;;4.16;89.72;98894.59;12195244;19;20010;-80
2023/01/19 11:11:03;;;;;;;18.65;9.10;;;;;;;3.93;90.56;98909.78;12220770;19;23752;-79
2023/01/19 11:15:14;;;;;;;18.60;8.93;;;;;;;3.70;92.12;98906.91;12192472;19;20002;-80
2023/01/19 11:19:28;;;;;;;18.75;9.40;;;;;;;3.60;93.26;98902.84;12220188;19;20082;-80
2023/01/19 11:23:55;;;;;;;16.48;8.25;;;;;;;3.61;94.17;98904.50;12226489;19;20070;-81
2023/01/19 11:27:57;;;;;;;18.02;9.20;;;;;;;3.64;95.54;98906.75;12202313;19;20075;-81
2023/01/19 11:32:10;;;;;;;18.15;9.32;;;;;;;3.59;97.19;98901.16;12271233;19;20027;-81
2023/01/19 11:36:16;;;;;;;22.00;10.18;;;;;;;3.49;97.59;98905.47;12231505;19;20044;-81
2023/01/19 11:40:18;;;;;;;19.65;10.00;;;;;;;3.40;98.43;98904.94;12236530;19;20007;-80
2023/01/19 11:44:29;;;;;;;19.73;9.43;;;;;;;3.31;99.41;98904.41;12231513;19;20017;-81
2023/01/19 11:48:41;;;;;;;20.67;9.02;;;;;;;3.28;100.00;98895.84;12209704;19;20003;-82
2023/01/19 11:52:49;;;;;;;32.20;11.05;;;;;;;3.29;100.00;98902.94;12228775;19;20014;-82
2023/01/19 11:56:54;;;;;;;16.20;7.88;;;;;;;3.20;100.00;98892.34;12219416;19;20046;-81
2023/01/19 12:01:19;;;;;;;18.00;8.70;;;;;;;3.23;100.00;98903.84;12227384;19;20035;-81
2023/01/19 12:05:28;;;;;;;19.17;8.48;;;;;;;3.19;100.00;98901.56;12226494;19;20002;-82
2023/01/19 12:09:41;;;;;;;18.75;9.00;;;;;;;3.20;100.00;98899.69;12206861;19;20063;-82
2023/01/19 12:13:45;;;;;;;14.02;7.65;;;;;;;3.05;100.00;98901.94;12216778;19;20009;-82
2023/01/19 12:17:52;;;;;;;18.27;8.88;;;;;;;2.99;100.00;98887.31;12219912;19;20014;-82
2023/01/19 12:21:55;;;;;;;17.50;8.75;;;;;;;2.97;100.00;98897.59;12199506;19;20045;-81
2023/01/19 12:26:15;;;;;;;16.75;8.73;;;;;;;2.91;100.00;98898.47;12241205;19;20007;-81
2023/01/19 12:30:21;;;;;;;20.55;9.20;;;;;;;2.84;100.00;98889.56;12242655;19;20015;-82
2023/01/19 12:34:30;;;;;;;23.25;9.90;;;;;;;2.89;100.00;98887.00;12220866;19;20037;-82
2023/01/19 12:38:37;;;;;;;21.88;10.27;;;;;;;2.95;100.00;98886.13;12217714;19;20027;-82
2023/01/19 12:42:45;;;;;;;21.38;10.45;;;;;;;3.00;100.00;98878.09;12194373;19;20011;-82
2023/01/19 12:47:02;;;;;;;22.27;10.23;;;;;;;3.15;100.00;98881.31;12213509;19;20017;-82
2023/01/19 12:51:03;;;;;;;24.20;11.40;;;;;;;3.20;100.00;98876.00;12195298;19;20007;-81
2023/01/19 12:55:21;;;;;;;19.93;10.50;;;;;;;3.23;100.00;98882.91;12215386;19;20023;-82
2023/01/19 12:59:25;;;;;;;23.95;10.77;;;;;;;3.44;100.00;98876.19;12211089;19;20019;-82
2023/01/19 13:03:27;;;;;;;22.85;10.20;;;;;;;3.60;100.00;98872.88;12190923;19;20537;-82
2023/01/19 13:08:05;;;;;;;19.05;8.85;;;;;;;3.85;100.00;98877.38;12212793;19;20007;-82
2023/01/19 13:12:13;;;;;;;24.75;11.10;;;;;;;3.86;100.00;98871.69;12191308;19;20007;-82
2023/01/19 13:16:17;;;;;;;19.35;9.75;;;;;;;3.96;100.00;98867.63;12203283;19;21309;-81
2023/01/19 13:20:41;;;;;;;20.77;10.43;;;;;;;3.97;100.00;98861.09;12214004;19;20015;-82
2023/01/19 13:25:20;;;;;;;17.55;9.45;;;;;;;4.02;100.00;98864.78;12189963;19;19999;-83
2023/01/19 13:29:35;;;;;;;17.40;8.77;;;;;;;3.84;100.00;98882.00;12208769;19;20010;-81
2023/01/19 13:33:50;;;;;;;19.30;9.18;;;;;;;3.76;100.00;98886.94;12191611;19;20075;-82
2023/01/19 13:37:52;;;;;;;23.35;11.38;;;;;;;3.73;100.00;98888.22;12218554;19;20531;-82
2023/01/19 13:41:58;;;;;;;19.23;10.93;;;;;;;3.62;100.00;98883.53;12194139;19;20010;-82
2023/01/19 13:46:00;;;;;;;24.30;9.82;;;;;;;3.52;100.00;98885.97;12209901;19;20623;-83
2023/01/19 13:50:01;;;;;;;19.08;10.38;;;;;;;3.39;100.00;98886.91;12211626;19;20007;-82
2023/01/19 13:54:05;;;;;;;17.65;9.57;;;;;;;3.41;100.00;98899.25;12194823;19;20014;-82
2023/01/19 13:58:20;;;;;;;22.95;10.20;;;;;;;3.31;100.00;98898.94;12208384;19;20376;-83
2023/01/19 14:02:21;;;;;;;22.10;10.50;;;;;;;3.25;100.00;98905.31;12213499;19;20025;-82
2023/01/19 14:06:34;;;;;;;22.48;9.50;;;;;;;3.10;100.00;98910.25;12190333;19;20003;-83
2023/01/19 14:10:37;;;;;;;17.58;8.73;;;;;;;2.96;100.00;98918.53;12208573;19;20023;-83
2023/01/19 14:14:40;;;;;;;;;;;;;;;2.86;100.00;98920.09;12205747;19;20015;-83
2023/01/19 14:18:42;;;;;;;17.20;8.43;;;;;;;2.72;100.00;98914.75;12181815;19;19998;-83
2023/01/19 14:22:45;;;;;;;17.83;8.63;;;;;;;2.62;100.00;98916.31;12204542;19;21391;-83
2023/01/19 14:26:50;;;;;;;19.27;8.68;;;;;;;2.64;100.00;98927.78;12201130;19;20014;-83
2023/01/19 14:30:58;;;;;;;20.90;9.85;;;;;;;2.65;100.00;98922.13;12181612;19;20002;-83
2023/01/19 14:35:02;;;;;;;21.05;8.85;;;;;;;2.61;100.00;98925.50;12199099;19;20018;-84
2023/01/19 14:39:13;;;;;;;19.65;8.80;;;;;;;2.57;100.00;98927.00;12180402;19;20014;-84
2023/01/19 14:43:14;;;;;;;15.32;8.73;;;;;;;2.50;100.00;98929.78;12210230;19;20117;-84
2023/01/19 14:47:33;;;;;;;16.77;8.73;;;;;;;2.49;100.00;98931.63;12207111;19;20014;-84
2023/01/19 14:51:35;;;;;;;18.70;9.10;;;;;;;2.44;100.00;98938.78;12187177;19;20031;-84
2023/01/19 14:55:44;;;;;;;18.65;8.70;;;;;;;2.46;100.00;98939.41;12205384;19;20006;-84
2023/01/19 14:59:48;;;;;;;15.20;8.38;;;;;;;2.44;100.00;98941.50;12206776;19;20003;-83
2023/01/19 15:03:50;;;;;;;17.63;8.48;;;;;;;2.39;100.00;98944.91;12186386;19;20105;-84
2023/01/19 15:07:52;;;;;;;20.73;8.93;;;;;;;2.36;100.00;98950.75;12210544;19;20034;-84
2023/01/19 15:11:54;;;;;;;;;;;;;;;2.25;100.00;98951.44;12194107;19;20069;-84
2023/01/19 15:15:57;;;;;;;15.15;7.22;;;;;;;2.13;100.00;98950.47;12209627;19;20270;-84
2023/01/19 15:19:59;;;;;;;17.77;8.52;;;;;;;2.07;100.00;98951.34;12206809;19;20066;-82
2023/01/19 15:24:00;;;;;;;16.65;8.00;;;;;;;2.04;100.00;98955.31;12189669;19;20002;-82
2023/01/19 15:28:10;;;;;;;18.45;8.68;;;;;;;2.06;100.00;98953.22;12202787;19;20081;-82
2023/01/19 15:32:13;;;;;;;18.35;7.93;;;;;;;2.03;100.00;98964.53;12209666;19;19999;-80
2023/01/19 15:36:17;;;;;;;18.75;7.60;;;;;;;2.02;100.00;98952.81;12184058;19;20002;-81
2023/01/19 15:40:21;;;;;;;15.40;7.78;;;;;;;1.96;100.00;98961.84;12200466;19;20003;-82
2023/01/19 15:44:23;;;;;;;17.45;7.43;;;;;;;1.94;100.00;98952.22;12202847;19;20006;-82
2023/01/19 15:48:25;;;;;;;17.67;7.47;;;;;;;1.87;100.00;98954.94;12189643;19;19998;-82
2023/01/19 15:52:27;;;;;;;15.43;8.00;;;;;;;1.89;100.00;98952.03;12214618;19;20002;-82
2023/01/19 15:56:30;;;;;;;19.20;8.02;;;;;;;1.86;100.00;98960.63;12219749;19;20773;-81
2023/01/19 16:00:33;;;;;;;18.00;8.27;;;;;;;1.87;100.00;98959.56;12200604;19;20011;-81
2023/01/19 16:04:35;;;;;;;18.65;8.68;;;;;;;1.84;100.00;98963.53;12215975;19;20006;-84
2023/01/19 16:08:36;;;;;;;15.93;8.25;;;;;;;1.88;100.00;98962.06;12221954;19;20009;-83
2023/01/19 16:12:38;;;;;;;18.30;8.82;;;;;;;1.95;100.00;98972.91;12195441;19;20013;-80
2023/01/19 16:16:41;;;;;;;19.30;8.50;;;;;;;1.89;100.00;98968.34;12208682;19;20014;-81
2023/01/19 16:20:43;;;;;;;19.08;8.73;;;;;;;1.87;100.00;98968.53;12216604;19;20570;-82
2023/01/19 16:24:45;;;;;;;20.42;9.88;;;;;;;1.97;100.00;98976.25;12195042;19;20013;-80
2023/01/19 16:28:47;;;;;;;20.40;7.80;;;;;;;1.93;100.00;98973.09;12211582;19;20018;-81
2023/01/19 16:32:48;;;;;;;22.17;9.32;;;;;;;1.90;100.00;98981.69;12220925;19;20020;-81
2023/01/19 16:36:50;;;;;;;18.33;8.65;;;;;;;1.94;100.00;98976.69;12194109;19;20065;-81
2023/01/19 16:40:52;;;;;;;12.70;6.38;;;;;;;1.93;100.00;98975.81;12217889;19;20002;-81
2023/01/19 16:44:54;;;;;;;17.30;8.63;;;;;;;1.94;100.00;98979.41;12197353;19;20010;-80
2023/01/19 16:49:01;;;;;;;24.00;9.68;;;;;;;1.97;100.00;98970.81;12222345;19;20665;-82
2023/01/19 16:53:03;;;;;;;17.08;8.60;;;;;;;2.00;100.00;98973.94;12220906;19;20034;-82
2023/01/19 16:57:04;;;;;;;19.63;8.60;;;;;;;2.07;100.00;98973.91;12211880;19;20038;-82
2023/01/19 17:01:12;;;;;;;21.17;8.98;;;;;;;2.08;100.00;98982.88;12232209;19;20078;-82
2023/01/19 17:05:17;;;;;;;17.02;8.20;;;;;;;2.03;100.00;98987.09;12264535;19;20005;-80
2023/01/19 17:09:18;;;;;;;16.42;8.23;;;;;;;2.04;100.00;98990.63;12244370;19;20003;-81
2023/01/19 17:13:21;;;;;;;15.85;7.35;;;;;;;2.09;100.00;98990.84;12258127;19;19995;-80
2023/01/19 17:17:22;;;;;;;15.57;7.47;;;;;;;2.12;100.00;98986.84;12250436;19;20037;-82
2023/01/19 17:21:25;;;;;;;19.17;7.30;;;;;;;2.16;100.00;98994.34;12203059;19;20305;-82
2023/01/19 17:25:26;;;;;;;17.73;7.60;;;;;;;2.15;100.00;98994.59;12227938;19;20003;-82
2023/01/19 17:29:28;;;;;;;17.58;7.70;;;;;;;2.14;100.00;98996.47;12222525;19;20010;-82
2023/01/19 17:33:29;;;;;;;13.40;7.05;;;;;;;2.19;100.00;98996.63;12199138;19;20018;-81
2023/01/19 17:37:31;;;;;;;17.42;7.13;;;;;;;2.22;100.00;98998.09;12216633;19;20006;-82
2023/01/19 17:41:35;;;;;;;15.77;7.10;;;;;;;2.20;100.00;99009.19;12220630;19;20023;-81
2023/01/19 17:45:36;;;;;;;18.20;7.68;;;;;;;2.23;100.00;99002.47;12191076;19;20015;-82
2023/01/19 17:49:38;;;;;;;14.13;6.25;;;;;;;2.23;100.00;99011.47;12212406;19;20021;-80
2023/01/19 17:53:41;;;;;;;13.82;7.13;;;;;;;2.19;100.00;98998.53;12218628;19;20026;-79
2023/01/19 17:57:42;;;;;;;16.90;7.57;;;;;;;2.13;100.00;99008.38;12188080;19;20079;-81
2023/01/19 18:01:45;;;;;;;16.60;8.20;;;;;;;2.16;100.00;99021.53;12212648;19;20042;-80
2023/01/19 18:05:54;;;;;;;17.25;8.80;;;;;;;2.17;100.00;99019.63;12208671;19;20009;-81
2023/01/19 18:09:56;;;;;;;16.20;8.65;;;;;;;2.11;100.00;99015.06;12189936;19;20549;-80
2023/01/19 18:14:01;;;;;;;21.02;9.18;;;;;;;2.10;100.00;99011.53;12203373;19;20653;-79
2023/01/19 18:18:03;;;;;;;19.97;8.77;;;;;;;2.15;100.00;99021.75;12188622;19;20023;-80
2023/01/19 18:22:04;;;;;;;19.63;9.35;;;;;;;2.20;100.00;99019.22;12210758;19;20003;-80
2023/01/19 18:26:13;;;;;;;21.27;9.95;;;;;;;2.26;100.00;99024.66;12213363;19;20006;-80
2023/01/19 18:30:16;;;;;;;21.60;10.32;;;;;;;2.29;100.00;99020.66;12196415;19;20508;-81
2023/01/19 18:34:18;;;;;;;19.15;10.18;;;;;;;2.31;100.00;99023.16;12217655;19;20015;-81
2023/01/19 18:38:21;;;;;;;17.77;9.40;;;;;;;2.32;100.00;99020.22;12213807;19;20124;-79
2023/01/19 18:42:24;;;;;;;19.77;9.93;;;;;;;2.32;100.00;99024.81;12192174;19;20401;-79
2023/01/19 18:46:26;;;;;;;22.75;9.25;;;;;;;2.32;100.00;99025.66;12208111;19;20010;-80
2023/01/19 18:50:28;;;;;;;20.50;8.70;;;;;;;2.28;100.00;99029.84;12212760;19;20491;-80
2023/01/19 18:54:29;;;;;;;19.35;9.10;;;;;;;2.22;100.00;99028.81;12189168;19;20010;-80